San Diego, Texas
Current Conditions -  °F | °C
As of 1:05 AM on Friday 19 Dec 2014 (Local Time) from KALI Reporting Station
Light Rain Light Rain  
Wind Chill: 69°   Ceiling: 6000
Heat Index: 69°   Visibility: 2.5mi
Dew Point: 67°   Wind: 5mph
Humidity: 93%   Direction: 130°SE
Pressure: 29.96"   Gusts: NA
Location:  27.76°N, 98.24°W
Report Text: KALI 190705Z AUTO 13004KT 2 1/2SM -RA BR FEW009 SCT020 OVC060 21/19 A2996 RMK AO2 RAB05 P0001 T02060194
Loading
Personal Weather Stations






























Interactive Weather Map New forecast layout! Learn more

10-Day Weather Forecast

Advertisements
Track Severe Weather on mobile